Список аэропортов
Фактическая погода:

19 августа, 04:30
Температура: +16°C (+16.0*)
Ветер: западный 2 м/с
Давление: *760 мм
неб. облачность
300 м
Время (МСК)Темп. СВетерВлажностьДавлениеОблачностьОсадки
03:00+16ЮВ, 3 м/с94%1013 гПаоблачносл. дождь
04:00+16Ю, 3 м/с95%1013 гПаоблачносл. дождь
05:00+16ЮЗ, 3 м/с95%1014 гПаоблачно
06:00+16ЮЗ, 3 м/с96%1014 гПаоблачно
07:00+16ЮЗ, 3 м/с96%1015 гПаоблачносл. дождь
08:00+16ЮЗ, 3 м/с96%1015 гПаоблачносл. дождь
09:00+16ЮЗ, 2 м/с95%1016 гПаоблачно
10:00+17ЮЗ, 3 м/с93%1016 гПаоблачно
11:00+18ЮЗ, 4 м/с87%1016 гПаоблачно
12:00+19ЮЗ, 3 м/с80%1017 гПас прояснениями
13:00+20ЮЗ, 3 м/с76%1017 гПаоблачно
14:00+21ЮЗ, 3 м/с70%1018 гПаоблачно
15:00+22ЮЗ, 3 м/с67%1017 гПаоблачно
16:00+22ЮЗ, 3 м/с66%1018 гПамалооблачно
17:00+22ЮЗ, 3 м/с66%1018 гПамалооблачно
18:00+21ЮЗ, 2 м/с67%1019 гПаясно
19:00+20Штиль 78%1019 гПаясно
20:00+18В, 1 м/с84%1019 гПамалооблачно
21:00+17ЮВ, 1 м/с88%1020 гПаясно
22:00+16ЮВ, 2 м/с94%1020 гПаясно
23:00+15Ю, 1 м/с97%1020 гПаясно
20 августа
00:00+14Ю, 2 м/с97%1020 гПаясно
01:00+14Ю, 2 м/с96%1021 гПаясно
02:00+14Ю, 2 м/с96%1021 гПаясно
03:00+13Ю, 2 м/с97%1021 гПаясно
04:00+13Ю, 2 м/с98%1021 гПаясно
05:00+12Ю, 2 м/с98%1022 гПамалооблачно
06:00+13Ю, 2 м/с97%1022 гПаясно
07:00+14Ю, 2 м/с93%1022 гПамалооблачно
08:00+17Ю, 2 м/с86%1022 гПамалооблачно
09:00+20Ю, 2 м/с70%1023 гПамалооблачно
10:00+24Ю, 2 м/с58%1022 гПамалооблачно
11:00+25Ю, 3 м/с52%1022 гПаясно
12:00+26Ю, 3 м/с49%1022 гПаясно
13:00+26Ю, 3 м/с48%1022 гПаясно
14:00+27Ю, 3 м/с46%1022 гПаясно
15:00+27Ю, 3 м/с46%1021 гПаясно
16:00+27Ю, 3 м/с46%1021 гПаясно
17:00+26Ю, 3 м/с47%1021 гПаясно
18:00+26Ю, 3 м/с48%1021 гПаясно
19:00+24Ю, 2 м/с61%1021 гПаясно
20:00+21Ю, 2 м/с72%1021 гПаясно
21:00+20Ю, 2 м/с79%1021 гПаясно
22:00+19Ю, 2 м/с85%1022 гПаясно
23:00+18Ю, 2 м/с88%1022 гПаясно
21 августа
00:00+17Ю, 2 м/с92%1022 гПаясно
01:00+17Ю, 2 м/с93%1022 гПаясно
02:00+17Ю, 2 м/с92%1022 гПас прояснениями
03:00+16ЮЗ, 2 м/с93%1022 гПамалооблачно